Relevés horaires Titlis (Suisse)


Relevés horaires à Titlis - Lundi 16 Août 2021
Heure UTC1 Température [°C] Vent [km/h] Hum. [%] Pres.4 [hPa] Visi. [Km] Nébu. [octa] Préc.5 [mm] Cond.
2m. Res. Ros. Dir.2 Vit. Moy. Raf.3
23:00 0.0 -8 -0.1 NO 48.2 -- 63.0 99 700(-1.0/3h) -- -- -- --
22:00 -1.1 -9.2 -1.1 NO 44.4 -- 57.4 100 700(-0.3/3h) -- -- -- --
21:00 -2.2 -10.6 -2.3 NO 42.6 -- 64.8 99 700(0.5/3h) -- -- -- --
20:00 -1.8 -10 -1.8 ONO 42.6 -- 64.8 100 700(0.6/3h) -- -- -- --
19:00 -1.5 -9.9 -1.5 ONO 46.3 -- 64.8 100 700(-0.2/3h) -- -- -- --
18:00 -0.6 -8.1 -0.6 ONO 38.9 -- 68.5 100 700(-0.5/3h) -- -- -- --
17:00 0.4 -4.8 0.4 ONO 20.4 -- 51.9 100 700(0.6/3h) -- -- -- --
16:00 0.1 -6.5 0.1 O 31.5 -- 68.5 100 700(0.9/3h) -- -- -- --
15:00 1.1 -3.9 1.1 O 20.4 -- 61.1 100 700(0.1/3h) -- -- -- --
14:00 1.8 -1 1.8 NO 9.3 -- 42.6 100 700(-0.7/3h) -- -- -- --
13:00 2.6 -3.2 2.6 NO 31.5 -- 46.3 100 700(-1.3/3h) -- -- -- --
12:00 2.4 -3.1 2.4 ONO 27.8 -- 50.0 100 700(-1.2/3h) -- -- -- --
11:00 4.2 -1 3.2 OSO 29.6 -- 50.0 93 700(-1.3/3h) -- -- -- --
10:00 5.2 3.1 5.2 S 9.3 -- 27.8 100 700(-0.8/3h) -- -- -- --
09:00 5.3 1.6 5.2 SO 18.5 -- 38.9 99 700(-0.5/3h) -- -- -- --
08:00 5.2 1.7 5.0 SO 16.7 -- 33.3 99 700(-0.2/3h) -- -- -- --
07:00 5.0 0.8 5.0 OSO 22.2 -- 38.9 100 700(-0.4/3h) -- -- -- --
06:00 4.9 0.5 4.9 O 24.1 -- 64.8 100 700(-0.5/3h) -- -- -- --
05:00 4.8 0.6 4.8 O 22.2 -- 50.0 100 700(-0.7/3h) -- -- -- --
04:00 5.3 0.8 5.3 OSO 25.9 -- 64.8 100 700(-0.7/3h) -- -- -- --
03:00 5.0 1 5.0 O 20.4 -- 63.0 100 700(-0.9/3h) -- -- -- --
02:00 5.6 0.6 4.8 SO 33.3 -- 50.0 95 700(-1.5/3h) -- -- -- --
01:00 5.8 0.4 5.5 SO 38.9 -- 50.0 98 700(-1.5/3h) -- -- -- --
00:00 6.6 2.7 4.5 OSO 24.1 -- 63.0 86 700(-1.5/3h) -- -- -- --

1 Coordinated Universal Time. Actuellement il est 15:00 locale et 13:00 UTC.

2 Le vent souffle depuis la direction indiquée vers la direction oposée.

3 Les rafales max. sont disponible 40 min après l'heure du relevé.

4 Pour les stations d'altitude (plus de 600m) le géopotentiel du niveau le plus proche de la pression obligatoire est indiqué.

5 Les stations disposant d'un diffuseur peuvent indiquer "trace". Cela signifie que des précipitations ont touchés le sol mais que la quantité est inférieure à 0.1 mm.

Copyright

Les données affichées sur cette page sont la propriété exclusive de Météo Suisse.

Récapitulatif de la journée
Température [°C] Vent [km/h] Ensoleillement4 [h] Precipitations totale5 [mm] Pression [Hpa]
Min1 Max.2 Moy.3 Max. Min Max.
4.8 5.9 0 68.5 2 h 30 min 0 700.0 700.0

1 Température minimale relevée entre 18:00 UTC la veille et 18:00 UTC le jour donné.

2 Température maximale relevée entre 06:00 UTC le jour donné et 06:00 UTC le lendemain.

3 Vent moyen de la journée basé sur les relevés horaires.

4 Ensoleillement en heures relevé entre 06:00 UTC la veille et 06:00 UTC le jour donné.

5 Précipitations totales tombées entre 06:00 UTC la jour donné et 06:00 UTC le lendemain.

Graphiques horaires